Time;durP1;ratioP1;P1;durP2;ratioP2;P2;SDS_P1;SDS_P2;PMS_P1;PMS_P2;Temp;Humidity;BMP_temperature;BMP_pressure;BME280_temperature;BME280_humidity;BME280_pressure;Samples;Min_cycle;Max_cycle;Signal;HPM_P1;HPM_P2
2024/01/12 00:00:18;;;;;;;;;19.00;12.25;;;;;2.04;63.28;102985.72;4995128;28;46577;-41
2024/01/12 00:02:43;;;;;;;;;22.00;14.50;;;;;2.06;63.15;102983.91;4994938;28;45450;-38
2024/01/12 00:05:08;;;;;;;;;24.75;16.00;;;;;2.08;65.58;102992.63;4995124;28;45388;-39
2024/01/12 00:07:34;;;;;;;;;24.50;18.00;;;;;2.13;64.84;102990.75;4995351;28;45453;-39
2024/01/12 00:09:59;;;;;;;;;23.00;15.75;;;;;2.17;66.76;102995.03;4995044;28;45326;-40
2024/01/12 00:12:25;;;;;;;;;20.50;14.75;;;;;2.23;65.46;102991.38;4994965;28;45319;-40
2024/01/12 00:14:50;;;;;;;;;22.00;19.00;;;;;2.28;66.29;102999.19;4995035;28;45322;-39
2024/01/12 00:17:18;;;;;;;;;19.75;16.75;;;;;2.28;66.14;102978.16;4995159;28;45254;-39
2024/01/12 00:19:46;;;;;;;;;15.00;9.00;;;;;2.36;66.99;102984.06;4994773;28;46210;-40
2024/01/12 00:22:11;;;;;;;;;19.50;15.75;;;;;2.41;67.32;102996.19;5079456;27;45472;-40
2024/01/12 00:24:36;;;;;;;;;15.00;12.50;;;;;2.40;66.21;102988.34;4995009;28;45507;-39
2024/01/12 00:27:02;;;;;;;;;21.00;17.75;;;;;2.49;66.44;102998.63;4995197;28;45326;-40
2024/01/12 00:29:27;;;;;;;;;13.00;10.00;;;;;2.53;65.37;102994.13;5079584;27;47354;-39
2024/01/12 00:31:53;;;;;;;;;23.50;16.50;;;;;2.57;67.59;103001.94;4994707;28;45307;-42
2024/01/12 00:34:18;;;;;;;;;18.50;16.00;;;;;2.60;67.41;102998.34;4994685;28;45469;-40
2024/01/12 00:36:44;;;;;;;;;20.00;13.25;;;;;2.60;66.42;102993.09;4996396;28;45515;-38
2024/01/12 00:39:09;;;;;;;;;22.75;12.25;;;;;2.63;66.62;102988.63;4993502;28;45379;-39
2024/01/12 00:41:34;;;;;;;;;18.75;14.00;;;;;2.67;68.00;102992.03;4994738;28;45364;-39
2024/01/12 00:44:01;;;;;;;;;27.25;16.00;;;;;2.72;68.11;102998.03;4994774;28;45391;-40
2024/01/12 00:46:26;;;;;;;;;18.25;14.00;;;;;2.73;67.90;102994.47;4995003;28;45746;-39
2024/01/12 00:48:52;;;;;;;;;18.00;15.75;;;;;2.80;67.13;102998.69;4994201;28;46821;-40
2024/01/12 00:51:17;;;;;;;;;16.50;15.25;;;;;2.80;67.43;102984.69;4994477;28;45346;-39
2024/01/12 00:53:42;;;;;;;;;17.75;13.00;;;;;2.87;67.25;102996.75;4994760;28;45249;-40
2024/01/12 00:56:08;;;;;;;;;21.75;16.00;;;;;2.89;68.08;102989.69;4994795;28;45574;-40
2024/01/12 00:58:33;;;;;;;;;16.25;13.25;;;;;2.89;67.90;102990.53;4994422;28;46174;-40
2024/01/12 01:00:59;;;;;;;;;16.50;13.25;;;;;2.91;68.79;102972.13;4994367;28;45322;-40
2024/01/12 01:03:24;;;;;;;;;23.00;18.25;;;;;2.98;67.93;102984.16;4994460;28;45385;-39
2024/01/12 01:05:50;;;;;;;;;21.75;16.25;;;;;3.01;68.41;102978.81;4994682;28;45390;-40
2024/01/12 01:08:15;;;;;;;;;13.50;13.00;;;;;3.03;68.05;102979.63;4994286;28;46437;-40
2024/01/12 01:10:41;;;;;;;;;18.00;15.50;;;;;3.00;68.66;102970.06;4993205;28;45406;-40
2024/01/12 01:13:07;;;;;;;;;19.50;16.00;;;;;3.07;67.40;102980.41;4994403;28;45335;-39
2024/01/12 01:15:32;;;;;;;;;19.00;15.25;;;;;3.03;68.43;102965.63;4994546;28;45343;-40
2024/01/12 01:17:58;;;;;;;;;21.25;16.75;;;;;3.12;68.00;102978.50;4994066;28;45273;-40
2024/01/12 01:20:24;;;;;;;;;22.25;17.50;;;;;3.14;68.58;102980.19;4994195;28;45393;-39
2024/01/12 01:22:49;;;;;;;;;18.50;15.75;;;;;3.13;68.25;102970.59;4994095;28;45507;-38
2024/01/12 01:25:15;;;;;;;;;29.75;21.75;;;;;3.18;68.05;102966.06;4994448;28;45294;-40
2024/01/12 01:27:40;;;;;;;;;22.50;18.25;;;;;3.21;67.03;102965.13;4993839;28;45531;-40
2024/01/12 01:30:07;;;;;;;;;22.25;18.25;;;;;3.20;68.27;102960.75;4994181;28;45173;-38
2024/01/12 01:32:32;;;;;;;;;20.25;15.25;;;;;3.25;67.47;102969.38;4994111;28;45341;-41
2024/01/12 01:34:58;;;;;;;;;17.00;15.25;;;;;3.20;67.53;102955.47;4995354;28;45177;-39
2024/01/12 01:37:23;;;;;;;;;18.75;16.00;;;;;3.27;68.12;102967.56;4994005;28;45362;-40
2024/01/12 01:39:48;;;;;;;;;24.75;22.75;;;;;3.23;67.56;102958.88;4993955;28;45286;-40
2024/01/12 01:42:14;;;;;;;;;20.50;16.00;;;;;3.24;68.46;102952.75;4993903;28;45279;-41
2024/01/12 01:44:39;;;;;;;;;20.50;19.00;;;;;3.29;68.30;102972.75;4994079;28;45412;-40
2024/01/12 01:47:05;;;;;;;;;20.50;18.50;;;;;3.20;68.29;102951.09;4993679;28;46467;-40
2024/01/12 01:49:30;;;;;;;;;26.75;18.75;;;;;3.29;68.54;102960.50;4993413;28;45499;-41
2024/01/12 01:51:56;;;;;;;;;15.25;12.25;;;;;3.32;67.94;102962.16;4993827;28;45302;-40
2024/01/12 01:54:22;;;;;;;;;16.75;13.75;;;;;3.31;67.73;102963.06;4993922;28;45406;-41
2024/01/12 01:56:48;;;;;;;;;18.50;16.00;;;;;3.30;68.05;102964.84;4993700;28;45290;-39
2024/01/12 01:59:15;;;;;;;;;15.50;15.25;;;;;3.29;68.59;102964.88;4993549;28;45390;-40
2024/01/12 02:01:41;;;;;;;;;24.00;18.00;;;;;3.34;68.02;102966.47;4993712;28;45273;-40
2024/01/12 02:04:07;;;;;;;;;26.00;18.75;;;;;3.33;68.93;102958.59;4993689;28;45487;-38
2024/01/12 02:06:34;;;;;;;;;22.25;16.00;;;;;3.30;68.42;102945.56;4993651;28;46379;-40
2024/01/12 02:09:00;;;;;;;;;17.75;16.25;;;;;3.40;68.13;102960.16;4993591;28;45257;-40
2024/01/12 02:11:25;;;;;;;;;20.50;19.00;;;;;3.40;68.92;102965.41;4993398;28;45279;-40
2024/01/12 02:13:51;;;;;;;;;20.25;17.00;;;;;3.38;68.32;102957.59;4993563;28;45587;-40
2024/01/12 02:16:17;;;;;;;;;22.50;16.75;;;;;3.36;69.00;102945.38;4993377;28;47157;-40
2024/01/12 02:18:43;;;;;;;;;22.75;16.50;;;;;3.48;68.61;102956.38;4993245;28;45491;-40
2024/01/12 02:21:08;;;;;;;;;24.50;18.50;;;;;3.48;68.42;102956.38;4993360;28;45412;-40
2024/01/12 02:23:34;;;;;;;;;23.50;19.00;;;;;3.47;68.82;102943.28;4993557;28;45273;-39
2024/01/12 02:25:59;;;;;;;;;19.00;16.00;;;;;3.52;69.08;102951.88;4993158;28;46402;-40
2024/01/12 02:28:25;;;;;;;;;25.50;20.25;;;;;3.43;69.28;102929.34;4993100;28;45337;-40
2024/01/12 02:30:51;;;;;;;;;23.25;18.50;;;;;3.54;68.97;102943.94;4993391;28;45384;-40
2024/01/12 02:33:16;;;;;;;;;29.25;19.00;;;;;3.51;69.61;102934.38;4993254;28;45437;-37
2024/01/12 02:35:41;;;;;;;;;23.00;17.00;;;;;3.57;68.50;102939.44;4992964;28;46138;-40
2024/01/12 02:38:07;;;;;;;;;19.50;13.25;;;;;3.53;68.95;102935.19;4993066;28;45227;-40
2024/01/12 02:40:32;;;;;;;;;21.75;16.75;;;;;3.52;68.48;102937.88;4993041;28;45897;-40
2024/01/12 02:42:57;;;;;;;;;17.00;16.00;;;;;3.54;69.47;102934.31;4993287;28;45679;-40
2024/01/12 02:45:23;;;;;;;;;20.50;14.00;;;;;3.57;69.59;102939.44;4993859;28;48769;-40
2024/01/12 02:47:48;;;;;;;;;23.00;20.00;;;;;3.53;69.87;102935.19;4992772;28;45219;-39
2024/01/12 02:50:13;;;;;;;;;29.00;20.50;;;;;3.56;69.67;102936.88;4992936;28;45385;-40
2024/01/12 02:52:39;;;;;;;;;25.50;17.00;;;;;3.56;69.84;102931.63;4993157;28;45432;-40
2024/01/12 02:55:05;;;;;;;;;27.25;20.75;;;;;3.47;68.99;102927.50;4992854;28;46103;-39
2024/01/12 02:57:31;;;;;;;;;25.00;19.50;;;;;3.53;69.58;102937.81;4992730;28;45437;-38
2024/01/12 02:59:57;;;;;;;;;23.00;19.25;;;;;3.46;69.43;102925.78;4992698;28;45534;-41
2024/01/12 03:02:24;;;;;;;;;29.00;20.75;;;;;3.53;70.19;102942.22;4995524;28;45394;-39
2024/01/12 03:04:49;;;;;;;;;25.75;18.00;;;;;3.48;69.94;102926.59;4995785;28;45611;-40
2024/01/12 03:07:15;;;;;;;;;21.25;17.25;;;;;3.53;69.90;102934.34;4995695;28;45635;-40
2024/01/12 03:09:40;;;;;;;;;24.25;20.00;;;;;3.54;69.45;102943.94;4995922;28;45314;-40
2024/01/12 03:12:06;;;;;;;;;27.75;16.50;;;;;3.50;69.96;102933.53;4996214;28;45339;-40
2024/01/12 03:14:31;;;;;;;;;25.25;22.00;;;;;3.49;69.68;102930.94;4995474;28;47564;-39
2024/01/12 03:16:56;;;;;;;;;28.25;21.50;;;;;3.57;70.27;102936.81;4995452;28;45301;-40
2024/01/12 03:19:22;;;;;;;;;24.50;22.00;;;;;3.55;70.38;102932.53;4995631;28;45384;-40
2024/01/12 03:21:47;;;;;;;;;38.25;32.25;;;;;3.52;69.60;102928.22;4995916;28;45358;-40
2024/01/12 03:24:12;;;;;;;;;29.25;20.25;;;;;3.52;70.05;102928.22;4995552;28;47129;-40
2024/01/12 03:26:38;;;;;;;;;34.00;24.25;;;;;3.42;70.42;102913.63;4995527;28;45395;-39
2024/01/12 03:29:03;;;;;;;;;29.75;24.50;;;;;3.47;70.26;102927.50;4995762;28;45391;-40
2024/01/12 03:31:29;;;;;;;;;36.00;21.00;;;;;3.44;70.19;102922.31;4995860;28;45338;-40
2024/01/12 03:33:54;;;;;;;;;33.75;23.75;;;;;3.45;70.94;102929.28;4995329;28;45464;-39
2024/01/12 03:36:20;;;;;;;;;26.50;19.50;;;;;3.45;71.26;102924.91;4995309;28;45331;-39
2024/01/12 03:38:45;;;;;;;;;31.00;24.00;;;;;3.46;71.64;102934.53;4995395;28;45161;-40
2024/01/12 03:41:11;;;;;;;;;32.50;25.25;;;;;3.46;70.60;102933.69;4994437;28;45480;-40
2024/01/12 03:43:36;;;;;;;;;33.75;25.00;;;;;3.52;71.50;102935.25;4995445;28;46724;-39
2024/01/12 03:46:01;;;;;;;;;39.25;26.25;;;;;3.53;70.94;102934.34;4995396;28;45369;-39
2024/01/12 03:48:27;;;;;;;;;33.50;28.00;;;;;3.54;70.66;102920.25;4995291;28;45913;-44
2024/01/12 03:50:52;;;;;;;;;34.25;28.00;;;;;3.58;71.07;102921.88;4994194;28;45293;-39
2024/01/12 03:53:18;;;;;;;;;35.50;27.50;;;;;3.58;71.45;102914.00;4995082;28;46448;-39
2024/01/12 03:55:43;;;;;;;;;35.25;30.00;;;;;3.63;71.06;102922.63;4995186;28;45315;-40
2024/01/12 03:58:08;;;;;;;;;37.75;28.00;;;;;3.65;71.69;102920.78;4994951;28;45347;-40
2024/01/12 04:00:34;;;;;;;;;34.50;31.00;;;;;3.62;71.72;102919.09;4995623;28;45259;-39
2024/01/12 04:02:59;;;;;;;;;34.00;27.75;;;;;3.63;71.28;102917.38;4994991;28;45473;-38
2024/01/12 04:05:25;;;;;;;;;31.00;27.25;;;;;3.66;70.73;102920.72;4994937;28;45374;-40
2024/01/12 04:07:50;;;;;;;;;34.75;30.00;;;;;3.66;70.55;102910.19;4995263;28;45271;-41
2024/01/12 04:10:15;;;;;;;;;34.50;25.00;;;;;3.64;71.26;102906.78;4995174;28;45275;-40
2024/01/12 04:12:41;;;;;;;;;46.50;27.00;;;;;3.71;70.75;102917.97;4994850;28;45417;-40
2024/01/12 04:15:09;;;;;;;;;46.00;32.00;;;;;3.70;70.69;102914.47;4995030;28;45365;-39
2024/01/12 04:17:35;;;;;;;;;33.25;26.25;;;;;3.72;71.29;102910.03;4995139;28;45504;-39
2024/01/12 04:20:01;;;;;;;;;41.50;27.25;;;;;3.70;71.68;102909.19;4994954;28;45310;-39
2024/01/12 04:22:26;;;;;;;;;37.75;28.00;;;;;3.74;71.49;102908.19;4994702;28;46198;-40
2024/01/12 04:24:51;;;;;;;;;36.75;26.50;;;;;3.74;71.73;102902.06;4994644;28;45333;-40
2024/01/12 04:27:16;;;;;;;;;19.00;14.25;;;;;3.78;71.41;102905.47;4994943;28;45403;-40
2024/01/12 04:29:42;;;;;;;;;32.50;29.75;;;;;3.76;71.00;102916.06;4994997;28;45499;-38
2024/01/12 04:32:07;;;;;;;;;39.25;29.75;;;;;3.78;72.04;102908.94;4994251;28;45433;-39
2024/01/12 04:34:37;;;;;;;;;42.50;34.00;;;;;3.78;71.44;102908.09;4994444;28;45444;-40
2024/01/12 04:37:03;;;;;;;;;38.00;29.25;;;;;3.71;71.47;102899.56;4994704;28;45353;-40
2024/01/12 04:39:29;;;;;;;;;31.50;23.50;;;;;3.80;72.00;102922.94;4994855;28;45271;-39
2024/01/12 04:41:54;;;;;;;;;43.25;33.25;;;;;3.82;70.96;102917.63;4994413;28;45603;-40
2024/01/12 04:44:19;;;;;;;;;42.25;30.50;;;;;3.83;72.02;102921.97;4994518;28;45353;-40
2024/01/12 04:46:45;;;;;;;;;45.50;33.25;;;;;3.85;70.96;102920.16;4994691;28;45180;-38
2024/01/12 04:49:10;;;;;;;;;41.25;31.00;;;;;3.85;70.95;102918.38;4994523;28;45396;-40
2024/01/12 04:51:35;;;;;;;;;56.75;39.25;;;;;3.80;71.10;102908.94;4994686;28;46505;-40
2024/01/12 04:54:01;;;;;;;;;40.75;32.00;;;;;3.86;71.46;102917.47;4994248;28;45409;-39
2024/01/12 04:56:26;;;;;;;;;31.00;25.00;;;;;3.86;71.31;102909.56;4994520;28;45362;-40
2024/01/12 04:58:52;;;;;;;;;39.25;31.25;;;;;3.82;71.48;102889.50;4994552;28;45468;-40
2024/01/12 05:01:18;;;;;;;;;37.50;31.50;;;;;3.90;71.71;102905.06;4994261;28;46142;-38
2024/01/12 05:03:43;;;;;;;;;41.25;31.75;;;;;3.89;72.34;102904.22;4994326;28;45384;-40
2024/01/12 05:06:09;;;;;;;;;40.25;33.50;;;;;3.83;71.04;102888.59;4994075;28;45463;-40
2024/01/12 05:08:34;;;;;;;;;48.00;35.50;;;;;3.95;71.57;102901.34;4994537;28;45397;-39
2024/01/12 05:11:00;;;;;;;;;37.00;32.75;;;;;3.93;71.09;102897.06;4993950;28;46033;-39
2024/01/12 05:13:25;;;;;;;;;48.00;33.00;;;;;3.94;72.21;102897.00;4994105;28;45320;-39
2024/01/12 05:15:50;;;;;;;;;56.50;37.25;;;;;3.96;71.61;102894.31;4993137;28;45396;-39
2024/01/12 05:18:16;;;;;;;;;45.25;34.00;;;;;3.95;72.09;102892.59;4994172;28;45377;-39
2024/01/12 05:20:41;;;;;;;;;45.50;27.75;;;;;3.95;71.09;102887.34;4993825;28;46192;-40
2024/01/12 05:23:07;;;;;;;;;24.25;18.50;;;;;3.94;72.04;102885.63;4993771;28;45244;-39
2024/01/12 05:25:32;;;;;;;;;33.75;26.25;;;;;3.93;71.30;102887.41;4993369;28;45374;-39
2024/01/12 05:27:57;;;;;;;;;37.25;29.75;;;;;4.00;71.26;102902.09;4994322;28;45231;-39
2024/01/12 05:30:23;;;;;;;;;49.75;33.75;;;;;4.02;71.29;102894.13;4993800;28;45973;-38
2024/01/12 05:32:48;;;;;;;;;47.75;30.25;;;;;4.02;71.64;102885.38;4994074;28;45420;-39
2024/01/12 05:35:13;;;;;;;;;40.25;30.75;;;;;3.98;71.78;102877.56;4993997;28;45504;-40
2024/01/12 05:37:39;;;;;;;;;38.75;27.75;;;;;4.03;71.99;102884.44;4993949;28;45614;-40
2024/01/12 05:40:04;;;;;;;;;35.75;28.00;;;;;4.08;71.25;102891.28;4993985;28;45393;-40
2024/01/12 05:42:30;;;;;;;;;41.75;30.50;;;;;4.08;71.56;102886.00;4993582;28;45179;-40
2024/01/12 05:44:55;;;;;;;;;36.50;30.50;;;;;4.11;71.06;102883.28;4993927;28;45316;-40
2024/01/12 05:47:21;;;;;;;;;33.75;26.00;;;;;4.12;71.36;102881.50;4993899;28;45335;-40
2024/01/12 05:49:46;;;;;;;;;37.75;24.75;;;;;4.12;71.38;102890.25;4995038;27;45969;-41
2024/01/12 05:52:11;;;;;;;;;35.75;26.25;;;;;4.12;71.60;102890.25;4993572;28;45380;-38
2024/01/12 05:54:37;;;;;;;;;37.00;30.25;;;;;4.04;71.37;102875.63;4993721;28;45350;-38
2024/01/12 05:57:02;;;;;;;;;45.25;29.25;;;;;4.11;71.37;102893.81;4993790;28;45347;-39
2024/01/12 05:59:28;;;;;;;;;25.50;21.75;;;;;4.14;70.93;102893.72;4993357;28;45336;-40
2024/01/12 06:01:54;;;;;;;;;31.75;26.25;;;;;4.16;71.05;102896.28;4993542;28;45338;-38
2024/01/12 06:04:19;;;;;;;;;35.50;25.50;;;;;4.17;71.46;102893.63;4993613;28;45527;-40
2024/01/12 06:06:46;;;;;;;;;30.75;22.50;;;;;4.19;70.97;102899.69;4993849;28;45374;-39
2024/01/12 06:09:11;;;;;;;;;35.00;23.25;;;;;4.20;70.95;102897.91;4993250;28;47506;-40
2024/01/12 06:11:41;;;;;;;;;34.00;24.50;;;;;4.20;71.34;102906.66;4993534;28;45431;-41
2024/01/12 06:14:07;;;;;;;;;35.25;20.25;;;;;4.19;71.13;102897.03;4993647;28;45160;-41
2024/01/12 06:16:32;;;;;;;;;36.50;23.00;;;;;4.27;70.87;102903.84;4993675;28;45223;-40
2024/01/12 06:18:57;;;;;;;;;33.75;22.75;;;;;4.27;71.00;102898.56;4993121;28;45426;-40
2024/01/12 06:21:23;;;;;;;;;33.25;27.00;;;;;4.28;71.50;102906.41;4993151;28;45286;-39
2024/01/12 06:23:48;;;;;;;;;35.75;26.00;;;;;4.30;71.49;102908.97;4993277;28;45435;-40
2024/01/12 06:26:14;;;;;;;;;42.75;34.00;;;;;4.26;71.64;102897.72;4993471;28;45306;-39
2024/01/12 06:28:39;;;;;;;;;30.00;23.75;;;;;4.32;70.79;102902.75;4993008;28;45991;-39
2024/01/12 06:31:04;;;;;;;;;27.50;16.25;;;;;4.35;71.34;102907.06;4993183;28;45535;-39
2024/01/12 06:33:31;;;;;;;;;32.50;24.75;;;;;4.34;70.96;102914.09;4992952;28;45390;-39
2024/01/12 06:35:56;;;;;;;;;32.00;26.25;;;;;4.35;71.67;102914.97;4993483;28;45328;-39
2024/01/12 06:38:22;;;;;;;;;39.75;28.25;;;;;4.03;71.12;102858.13;4995560;28;45895;-39
2024/01/12 06:40:47;;;;;;;;;30.75;24.00;;;;;4.37;70.88;102911.34;4995915;28;45416;-39
2024/01/12 06:43:12;;;;;;;;;39.50;26.50;;;;;4.38;71.64;102912.19;4995759;28;45293;-39
2024/01/12 06:45:38;;;;;;;;;30.50;23.25;;;;;4.39;70.49;102922.72;4996035;28;45416;-39
2024/01/12 06:48:04;;;;;;;;;36.25;25.25;;;;;4.39;70.53;102914.81;4995286;28;45885;-39
2024/01/12 06:50:29;;;;;;;;;24.50;22.75;;;;;4.38;71.09;102910.47;4995332;28;45394;-40
2024/01/12 06:52:56;;;;;;;;;38.00;25.50;;;;;4.41;70.86;102910.31;4995661;28;45444;-39
2024/01/12 06:55:21;;;;;;;;;37.50;24.25;;;;;4.41;70.81;102907.69;4995706;28;45382;-39
2024/01/12 06:57:47;;;;;;;;;30.50;22.75;;;;;4.40;71.14;102905.13;4995595;28;46270;-39
2024/01/12 07:00:12;;;;;;;;;31.50;21.00;;;;;4.43;70.95;102911.16;4995358;28;45315;-38
2024/01/12 07:02:38;;;;;;;;;26.25;20.25;;;;;4.15;71.21;102866.44;4995659;28;45370;-39
2024/01/12 07:05:03;;;;;;;;;39.00;26.75;;;;;4.43;70.54;102916.41;4995538;28;45425;-39
2024/01/12 07:07:29;;;;;;;;;30.25;23.00;;;;;4.41;70.25;102907.69;4995305;28;47197;-39
2024/01/12 07:09:54;;;;;;;;;30.25;23.75;;;;;4.45;70.62;102919.00;4995315;28;45399;-40
2024/01/12 07:12:20;;;;;;;;;26.75;22.00;;;;;4.35;70.44;102904.44;4995552;28;45333;-39
2024/01/12 07:14:45;;;;;;;;;30.25;21.50;;;;;4.46;70.89;102920.69;4995582;28;45393;-40
2024/01/12 07:17:10;;;;;;;;;38.25;24.25;;;;;4.41;71.04;102914.75;4995199;28;49983;-38
2024/01/12 07:19:36;;;;;;;;;34.00;28.00;;;;;4.40;70.82;102911.25;4995349;28;45305;-39
2024/01/12 07:22:02;;;;;;;;;31.50;26.50;;;;;4.46;70.97;102912.78;4995537;28;45272;-40
2024/01/12 07:24:27;;;;;;;;;35.50;27.50;;;;;4.45;70.79;102914.56;4995689;28;45315;-39
2024/01/12 07:26:52;;;;;;;;;43.25;30.50;;;;;4.46;71.43;102918.91;4995131;28;45592;-39
2024/01/12 07:29:22;;;;;;;;;29.25;26.00;;;;;4.46;71.22;102923.34;4995377;28;45400;-39
2024/01/12 07:31:50;;;;;;;;;34.00;27.50;;;;;4.43;71.34;102915.56;4995411;28;45323;-39
2024/01/12 07:34:17;;;;;;;;;35.25;25.00;;;;;4.43;70.92;102911.16;4994847;28;45344;-39
2024/01/12 07:36:43;;;;;;;;;33.75;23.00;;;;;4.50;70.06;102925.81;4994740;28;46974;-39
2024/01/12 07:39:08;;;;;;;;;30.75;28.00;;;;;4.46;70.10;102912.78;5079369;27;45950;-40
2024/01/12 07:41:33;;;;;;;;;34.00;26.25;;;;;4.52;70.48;102931.03;4995315;28;45207;-39
2024/01/12 07:43:59;;;;;;;;;34.25;24.50;;;;;4.48;70.79;102929.44;4995410;28;45411;-39
2024/01/12 07:46:24;;;;;;;;;23.75;22.50;;;;;4.50;70.37;102927.59;4994531;28;45330;-39
2024/01/12 07:48:51;;;;;;;;;25.75;18.00;;;;;4.51;69.71;102931.97;4994499;28;45220;-38
2024/01/12 07:51:17;;;;;;;;;27.25;21.50;;;;;4.50;69.96;102930.22;4994844;28;45439;-38
2024/01/12 07:53:42;;;;;;;;;27.50;23.00;;;;;4.50;69.79;102931.09;4995094;28;45330;-39
2024/01/12 07:56:08;;;;;;;;;20.50;14.75;;;;;4.49;70.40;102928.50;4994576;28;45483;-39
2024/01/12 07:58:33;;;;;;;;;37.25;27.50;;;;;4.50;70.68;102933.72;4994690;28;45339;-39
2024/01/12 08:00:59;;;;;;;;;33.75;24.00;;;;;4.50;70.40;102927.59;4994470;28;45478;-44
2024/01/12 08:03:24;;;;;;;;;34.75;27.25;;;;;4.51;69.54;102931.97;4994230;28;45407;-40
2024/01/12 08:05:50;;;;;;;;;43.50;28.00;;;;;4.50;69.39;102931.09;4993025;28;46353;-40
2024/01/12 08:08:16;;;;;;;;;34.25;28.00;;;;;4.48;70.10;102924.16;4993450;28;45527;-40
2024/01/12 08:10:41;;;;;;;;;42.75;28.50;;;;;4.47;70.72;102931.22;4993067;28;45295;-38
2024/01/12 08:13:07;;;;;;;;;35.50;22.75;;;;;4.47;70.09;102923.31;4993037;28;45454;-40
2024/01/12 08:15:32;;;;;;;;;32.00;29.00;;;;;4.50;69.67;102923.16;4992684;28;46390;-40
2024/01/12 08:17:58;;;;;;;;;34.75;25.00;;;;;4.51;70.26;102921.44;4991568;28;45489;-40
2024/01/12 08:20:23;;;;;;;;;37.75;31.50;;;;;4.55;70.44;102924.78;4992969;28;45705;-39
2024/01/12 08:22:48;;;;;;;;;39.75;33.25;;;;;4.55;69.53;102925.69;4992931;28;45638;-40
2024/01/12 08:25:14;;;;;;;;;37.50;28.00;;;;;4.56;69.15;102916.84;4992645;28;46347;-40
2024/01/12 08:27:39;;;;;;;;;35.00;26.00;;;;;4.56;69.63;102926.53;4992328;28;45412;-40
2024/01/12 08:30:07;;;;;;;;;37.00;28.25;;;;;4.57;69.40;102923.81;5007956;28;45429;-38
2024/01/12 08:32:33;;;;;;;;;36.25;26.50;;;;;4.56;69.41;102916.84;4992873;28;45415;-40
2024/01/12 08:34:58;;;;;;;;;38.50;26.50;;;;;4.56;68.84;102922.13;4992754;28;45490;-40
2024/01/12 08:37:23;;;;;;;;;29.25;21.50;;;;;4.51;69.01;102908.25;4992654;28;45433;-40
2024/01/12 08:39:49;;;;;;;;;42.00;35.00;;;;;4.46;70.30;102908.38;4992552;28;45602;-39
2024/01/12 08:42:14;;;;;;;;;36.25;27.00;;;;;4.46;68.71;102912.78;4993093;28;45439;-39
2024/01/12 08:44:40;;;;;;;;;36.25;28.25;;;;;4.48;69.83;102914.47;4992489;28;46129;-39
2024/01/12 08:47:05;;;;;;;;;44.75;29.00;;;;;4.52;70.00;102915.22;4992061;28;45503;-38
2024/01/12 08:49:30;;;;;;;;;84.25;64.25;;;;;4.52;69.04;102924.91;4992686;28;45568;-40
2024/01/12 08:51:56;;;;;;;;;42.25;36.50;;;;;4.48;69.12;102921.53;4992422;28;45496;-38
2024/01/12 08:54:21;;;;;;;;;55.25;36.50;;;;;4.50;70.51;102922.31;4992381;28;46717;-40
2024/01/12 08:56:47;;;;;;;;;45.75;34.50;;;;;4.51;69.80;102921.44;4992299;28;45431;-38
2024/01/12 08:59:13;;;;;;;;;39.00;26.25;;;;;4.48;70.27;102924.16;4991204;28;45624;-40
2024/01/12 09:01:38;;;;;;;;;35.75;22.00;;;;;4.46;69.00;102920.69;4992459;28;45188;-40
2024/01/12 09:04:04;;;;;;;;;37.75;30.50;;;;;4.53;69.31;102930.13;4992221;28;46133;-39
2024/01/12 09:06:30;;;;;;;;;43.00;33.00;;;;;4.57;69.46;102936.16;4992335;28;45563;-40
2024/01/12 09:08:56;;;;;;;;;39.75;29.00;;;;;4.58;69.11;102943.13;4992272;28;45624;-40
2024/01/12 09:11:21;;;;;;;;;35.00;24.25;;;;;4.55;68.79;102937.97;5007794;28;45528;-40
2024/01/12 09:13:48;;;;;;;;;38.75;30.75;;;;;4.57;69.24;102944.91;4997061;27;45511;-46
2024/01/12 09:16:13;;;;;;;;;46.75;33.25;;;;;4.57;69.70;102944.06;5013618;27;45452;-41
2024/01/12 09:18:39;;;;;;;;;35.75;26.25;;;;;4.52;69.65;102933.69;4995848;27;45484;-38
2024/01/12 09:21:05;;;;;;;;;41.50;32.50;;;;;4.55;69.27;102948.50;5001997;27;45445;-39
2024/01/12 09:23:31;;;;;;;;;42.00;30.50;;;;;4.45;69.33;102930.38;5020830;27;46225;-40
2024/01/12 09:25:56;;;;;;;;;37.25;27.00;;;;;4.53;68.96;102943.31;5009737;27;45459;-40
2024/01/12 09:28:22;;;;;;;;;43.00;35.50;;;;;4.54;68.56;102949.44;5009338;27;45436;-40
2024/01/12 09:30:47;;;;;;;;;42.25;34.25;;;;;4.55;69.08;102954.66;5025113;27;45499;-39
2024/01/12 09:33:14;;;;;;;;;40.00;32.75;;;;;4.51;68.66;102947.78;5004966;27;45514;-40
2024/01/12 09:35:39;;;;;;;;;35.75;29.25;;;;;4.50;68.19;102953.94;5019392;27;45437;-39
2024/01/12 09:38:05;;;;;;;;;34.00;31.75;;;;;4.49;68.18;102952.22;4991518;28;45492;-38
2024/01/12 09:40:31;;;;;;;;;35.50;29.75;;;;;4.48;68.45;102964.56;4992052;28;45479;-39
2024/01/12 09:43:00;;;;;;;;;41.25;31.00;;;;;4.50;68.78;102967.97;5007124;28;46345;-39
2024/01/12 09:45:25;;;;;;;;;35.50;23.50;;;;;4.50;68.17;102967.97;4991355;28;45410;-39
2024/01/12 09:47:51;;;;;;;;;43.75;33.75;;;;;4.48;68.64;102966.31;4991507;28;45505;-40
2024/01/12 09:50:21;;;;;;;;;37.25;29.75;;;;;4.43;67.97;102957.72;4991950;28;45383;-40
2024/01/12 09:52:47;;;;;;;;;37.00;30.00;;;;;4.52;68.27;102973.22;4990245;28;45520;-40
2024/01/12 09:55:12;;;;;;;;;46.75;24.75;;;;;4.52;68.32;102977.63;4991571;28;45612;-40
2024/01/12 09:57:39;;;;;;;;;39.25;27.75;;;;;4.44;68.24;102973.47;4991526;28;45343;-40
2024/01/12 10:00:08;;;;;;;;;45.25;36.25;;;;;4.44;68.01;102973.47;4991487;28;45448;-39
2024/01/12 10:02:33;;;;;;;;;56.50;35.00;;;;;4.41;68.54;102973.56;4991554;28;46478;-40
2024/01/12 10:04:59;;;;;;;;;41.75;36.50;;;;;4.40;68.30;102969.22;4991661;28;45419;-43
2024/01/12 10:07:25;;;;;;;;;33.00;25.00;;;;;4.48;68.13;102987.41;4991612;28;45436;-40
2024/01/12 10:09:50;;;;;;;;;44.00;31.75;;;;;4.48;67.99;102998.81;4992456;28;45495;-40
2024/01/12 10:12:16;;;;;;;;;47.00;34.25;;;;;4.48;67.72;102988.28;4994279;28;47394;-40
2024/01/12 10:14:42;;;;;;;;;36.25;31.50;;;;;4.45;67.56;102987.50;4994756;28;45423;-41
2024/01/12 10:17:07;;;;;;;;;43.00;33.25;;;;;4.50;67.69;103004.88;5000392;27;45438;-37
2024/01/12 10:19:32;;;;;;;;;44.50;32.00;;;;;4.43;67.31;102992.00;4994679;28;45408;-39
2024/01/12 10:21:58;;;;;;;;;44.75;29.50;;;;;4.51;67.90;102997.88;4993206;28;46004;-40
2024/01/12 10:24:23;;;;;;;;;40.50;37.00;;;;;4.51;67.33;103003.13;4994114;27;45576;-40
2024/01/12 10:26:52;;;;;;;;;47.00;37.00;;;;;4.53;67.51;103003.94;4994592;28;45970;-40
2024/01/12 10:29:18;;;;;;;;;38.75;30.25;;;;;4.54;67.05;103010.06;4994522;28;45516;-39
2024/01/12 10:31:44;;;;;;;;;49.00;35.25;;;;;4.55;67.26;103006.50;4993929;28;46354;-42
2024/01/12 10:34:14;;;;;;;;;47.00;37.50;;;;;4.56;67.21;103009.09;4991549;28;45609;-40
2024/01/12 10:36:40;;;;;;;;;45.00;36.75;;;;;4.60;67.47;103001.94;4993548;28;45436;-40
2024/01/12 10:39:10;;;;;;;;;39.25;35.00;;;;;4.58;67.39;102995.84;4997068;27;45409;-39
2024/01/12 10:41:36;;;;;;;;;45.75;36.50;;;;;4.49;66.77;102974.16;5017493;27;47270;-40
2024/01/12 10:44:06;;;;;;;;;45.75;30.50;;;;;4.56;66.33;102989.78;5005872;27;45704;-40
2024/01/12 10:46:45;;;;;;;;;37.50;36.00;;;;;4.63;67.19;102994.78;5005907;27;45487;-37
2024/01/12 10:49:23;;;;;;;;;41.00;34.00;;;;;4.66;67.05;102991.19;5019351;27;45281;-38
2024/01/12 10:52:04;;;;;;;;;52.00;34.75;;;;;4.66;66.96;102992.03;4993355;28;46478;-39
2024/01/12 10:54:40;;;;;;;;;41.50;34.25;;;;;4.64;67.40;102982.47;5003466;27;45443;-39
2024/01/12 10:57:06;;;;;;;;;46.25;40.25;;;;;4.72;66.47;102991.00;5004488;27;45374;-38
2024/01/12 10:59:32;;;;;;;;;41.75;31.25;;;;;4.74;66.39;102991.78;4994411;28;45437;-39
2024/01/12 11:02:00;;;;;;;;;45.25;33.25;;;;;4.74;66.66;102984.72;4993672;28;47495;-40
2024/01/12 11:04:27;;;;;;;;;57.25;36.00;;;;;4.75;66.46;102991.72;4993707;28;45330;-39
2024/01/12 11:06:56;;;;;;;;;48.25;36.50;;;;;4.63;66.20;102968.41;4993701;28;45425;-39
2024/01/12 11:09:22;;;;;;;;;38.00;31.00;;;;;4.67;66.01;102975.31;4994070;28;45459;-38